createdAt,value
2018-11-27T00:01:21.696Z,30.53
2018-11-27T00:03:55.931Z,35.87
2018-11-27T00:06:25.922Z,30.93
2018-11-27T00:08:55.861Z,33.50
2018-11-27T00:11:25.765Z,34.20
2018-11-27T00:13:55.764Z,33.83
2018-11-27T00:16:25.743Z,34.53
2018-11-27T00:18:55.743Z,38.33
2018-11-27T00:21:25.761Z,37.50
2018-11-27T00:23:55.763Z,37.70
2018-11-27T00:26:25.671Z,37.23
2018-11-27T00:28:55.683Z,37.30
2018-11-27T00:31:25.642Z,42.53
2018-11-27T00:33:55.573Z,39.10
2018-11-27T00:36:25.496Z,42.73
2018-11-27T00:38:55.454Z,38.60
2018-11-27T00:41:25.351Z,39.07
2018-11-27T00:43:55.236Z,37.77
2018-11-27T00:46:25.255Z,41.40
2018-11-27T00:48:55.229Z,38.93
2018-11-27T00:51:25.166Z,43.37
2018-11-27T00:53:55.200Z,45.40
2018-11-27T00:56:25.267Z,38.40
2018-11-27T00:58:55.194Z,43.60
2018-11-27T01:01:25.298Z,42.47
2018-11-27T01:03:55.289Z,40.90
2018-11-27T01:06:25.196Z,36.40
2018-11-27T01:08:55.191Z,33.10
2018-11-27T01:11:25.142Z,40.87
2018-11-27T01:13:55.147Z,34.93
2018-11-27T01:16:25.116Z,33.70
2018-11-27T01:18:55.110Z,34.83
2018-11-27T01:21:25.029Z,30.27
2018-11-27T01:23:54.967Z,36.53
2018-11-27T01:26:24.929Z,34.83
2018-11-27T01:28:54.852Z,34.73
2018-11-27T01:31:24.764Z,36.73
2018-11-27T01:33:54.602Z,34.97
2018-11-27T01:36:25.418Z,38.17
2018-11-27T01:38:55.370Z,34.63
2018-11-27T01:41:25.314Z,36.13
2018-11-27T01:43:55.203Z,34.33
2018-11-27T01:46:26.638Z,34.60
2018-11-27T01:48:56.610Z,35.60
2018-11-27T01:51:26.718Z,40.37
2018-11-27T01:53:56.710Z,33.97
2018-11-27T01:56:26.701Z,38.43
2018-11-27T01:58:56.594Z,32.83
2018-11-27T02:01:26.610Z,37.43
2018-11-27T02:03:56.506Z,41.97
2018-11-27T02:06:26.437Z,49.67
2018-11-27T02:08:56.427Z,44.50
2018-11-27T02:11:26.463Z,52.13
2018-11-27T02:13:56.403Z,47.83
2018-11-27T02:16:26.356Z,53.30
2018-11-27T02:18:56.285Z,54.27
2018-11-27T02:21:26.182Z,46.50
2018-11-27T02:23:56.206Z,50.47
2018-11-27T02:26:26.157Z,56.80
2018-11-27T02:28:56.379Z,60.90
2018-11-27T02:31:27.152Z,61.83
2018-11-27T02:33:57.105Z,53.27
2018-11-27T02:36:27.042Z,53.57
2018-11-27T02:38:57.032Z,56.47
2018-11-27T02:41:27.029Z,64.57
2018-11-27T02:43:57.040Z,53.20
2018-11-27T02:46:26.983Z,64.97
2018-11-27T02:48:56.941Z,71.73
2018-11-27T02:51:27.035Z,52.00
2018-11-27T02:53:57.057Z,62.47
2018-11-27T02:56:27.053Z,62.87
2018-11-27T02:58:56.993Z,57.80
2018-11-27T03:01:26.942Z,63.67
2018-11-27T03:03:57.070Z,60.03
2018-11-27T03:06:27.075Z,60.97
2018-11-27T03:08:57.092Z,67.67
2018-11-27T03:11:27.026Z,67.70
2018-11-27T03:13:57.182Z,69.33
2018-11-27T03:16:27.101Z,70.13
2018-11-27T03:18:57.038Z,69.30
2018-11-27T03:21:27.034Z,62.10
2018-11-27T03:23:57.065Z,60.07
2018-11-27T03:26:27.041Z,77.03
2018-11-27T03:28:57.080Z,70.97
2018-11-27T03:31:27.083Z,61.83
2018-11-27T03:33:56.984Z,58.40
2018-11-27T03:36:26.867Z,57.93
2018-11-27T03:38:56.936Z,51.90
2018-11-27T03:41:26.926Z,54.17
2018-11-27T03:43:56.966Z,59.50
2018-11-27T03:46:26.909Z,58.90
2018-11-27T03:48:56.871Z,60.37
2018-11-27T03:51:26.886Z,49.10
2018-11-27T03:53:56.867Z,51.47
2018-11-27T03:56:26.778Z,48.30
2018-11-27T03:58:56.801Z,50.67
2018-11-27T04:01:26.786Z,42.80
2018-11-27T04:03:56.670Z,44.97
2018-11-27T04:06:26.595Z,45.67
2018-11-27T04:08:56.521Z,48.53
2018-11-27T04:11:26.449Z,37.50
2018-11-27T04:13:56.438Z,46.30
2018-11-27T04:16:26.311Z,40.77
2018-11-27T04:18:56.348Z,41.07
2018-11-27T04:21:26.338Z,46.90
2018-11-27T04:23:56.268Z,44.33
2018-11-27T04:26:26.229Z,41.40
2018-11-27T04:28:56.147Z,47.90
2018-11-27T04:31:26.044Z,48.60
2018-11-27T04:33:55.954Z,52.93
2018-11-27T04:36:25.991Z,54.07
2018-11-27T04:38:55.931Z,55.40
2018-11-27T04:41:25.904Z,53.73
2018-11-27T04:43:55.953Z,58.53
2018-11-27T04:46:25.980Z,55.17
2018-11-27T04:48:55.943Z,51.63
2018-11-27T04:51:26.082Z,55.83
2018-11-27T04:53:56.054Z,70.22
2018-11-27T04:56:26.053Z,59.20
2018-11-27T04:58:55.979Z,61.10
2018-11-27T05:01:26.022Z,53.00
2018-11-27T05:03:55.987Z,57.33
2018-11-27T05:06:25.895Z,60.47
2018-11-27T05:08:55.901Z,52.90
2018-11-27T05:11:25.833Z,57.27
2018-11-27T05:13:56.638Z,56.33
2018-11-27T05:16:26.612Z,57.13
2018-11-27T05:18:56.584Z,57.57
2018-11-27T05:21:26.588Z,61.30
2018-11-27T05:23:56.499Z,58.50
2018-11-27T05:26:26.429Z,61.87
2018-11-27T05:28:56.320Z,60.57
2018-11-27T05:31:26.292Z,64.60
2018-11-27T05:33:56.293Z,60.07
2018-11-27T05:36:26.270Z,59.20
2018-11-27T05:38:56.299Z,55.10
2018-11-27T05:41:26.205Z,52.40
2018-11-27T05:43:56.176Z,55.03
2018-11-27T05:46:26.122Z,58.83
2018-11-27T05:48:56.045Z,52.67
2018-11-27T05:51:25.966Z,60.17
2018-11-27T05:53:55.866Z,55.77
2018-11-27T05:56:25.923Z,56.33
2018-11-27T05:58:55.879Z,60.43
2018-11-27T06:01:25.838Z,55.73
2018-11-27T06:03:55.743Z,50.93
2018-11-27T06:06:25.730Z,59.03
2018-11-27T06:08:55.732Z,57.70
2018-11-27T06:11:25.706Z,61.67
2018-11-27T06:13:55.751Z,58.43
2018-11-27T06:16:25.722Z,56.77
2018-11-27T06:18:55.654Z,56.73
2018-11-27T06:21:25.547Z,61.90
2018-11-27T06:23:55.528Z,61.30
2018-11-27T06:26:25.464Z,67.80
2018-11-27T06:28:55.460Z,57.30
2018-11-27T06:31:25.444Z,55.80
2018-11-27T06:33:55.644Z,61.73
2018-11-27T06:36:25.569Z,64.63
2018-11-27T06:38:55.608Z,60.67
2018-11-27T06:41:25.704Z,50.93
2018-11-27T06:43:55.690Z,61.33
2018-11-27T06:46:25.676Z,62.00
2018-11-27T06:48:55.702Z,61.33
2018-11-27T06:51:25.686Z,62.47
2018-11-27T06:53:55.842Z,61.80
2018-11-27T06:56:25.950Z,60.47
2018-11-27T06:58:55.968Z,57.60
2018-11-27T07:01:26.035Z,51.90
2018-11-27T07:03:55.968Z,53.67
2018-11-27T07:06:26.018Z,62.70
2018-11-27T07:08:55.989Z,54.83
2018-11-27T07:11:26.020Z,64.90
2018-11-27T07:13:56.049Z,60.90
2018-11-27T07:16:26.006Z,54.27
2018-11-27T07:18:55.968Z,55.47
2018-11-27T07:21:25.965Z,54.80
2018-11-27T07:23:55.934Z,61.10
2018-11-27T07:26:25.995Z,64.77
2018-11-27T07:28:56.190Z,58.63
2018-11-27T07:31:26.127Z,61.73
2018-11-27T07:33:56.156Z,62.27
2018-11-27T07:36:26.113Z,70.33
2018-11-27T07:38:56.098Z,57.30
2018-11-27T07:41:26.049Z,60.93
2018-11-27T07:43:55.950Z,62.97
2018-11-27T07:46:26.059Z,53.43
2018-11-27T07:48:56.105Z,63.23
2018-11-27T07:51:26.178Z,75.40
2018-11-27T07:53:58.285Z,67.60
2018-11-27T07:56:28.216Z,70.20
2018-11-27T07:58:58.231Z,54.63
2018-11-27T08:01:28.219Z,61.37
2018-11-27T08:03:58.166Z,55.43
2018-11-27T08:06:28.153Z,58.00
2018-11-27T08:08:58.093Z,60.73
2018-11-27T08:11:28.181Z,58.60
2018-11-27T08:13:58.380Z,56.03
2018-11-27T08:16:28.575Z,57.67
2018-11-27T08:18:58.486Z,55.83
2018-11-27T08:21:28.479Z,54.07
2018-11-27T08:23:58.434Z,56.93
2018-11-27T08:26:28.321Z,55.67
2018-11-27T08:28:58.309Z,58.83
2018-11-27T08:31:28.296Z,61.30
2018-11-27T08:33:58.358Z,64.27
2018-11-27T08:36:28.311Z,67.70
2018-11-27T08:38:58.204Z,61.97
2018-11-27T08:41:28.242Z,65.60
2018-11-27T08:43:58.233Z,70.57
2018-11-27T08:46:28.225Z,58.47
2018-11-27T08:48:58.325Z,61.77
2018-11-27T08:51:28.258Z,60.70
2018-11-27T08:53:58.294Z,55.50
2018-11-27T08:56:28.226Z,216.70
2018-11-27T08:58:58.147Z,75.10
2018-11-27T09:01:28.062Z,55.07
2018-11-27T09:03:57.948Z,56.20
2018-11-27T09:06:27.975Z,45.80
2018-11-27T09:08:58.018Z,46.23
2018-11-27T09:11:28.016Z,46.73
2018-11-27T09:13:57.976Z,46.90
2018-11-27T09:16:27.949Z,42.00
2018-11-27T09:18:57.978Z,41.90
2018-11-27T09:21:27.953Z,45.40
2018-11-27T09:23:57.956Z,46.60
2018-11-27T09:26:27.924Z,42.50
2018-11-27T09:28:58.013Z,48.27
2018-11-27T09:31:28.041Z,45.17
2018-11-27T09:33:57.946Z,49.37
2018-11-27T09:36:27.933Z,45.47
2018-11-27T09:38:57.855Z,48.13
2018-11-27T09:41:27.919Z,46.37
2018-11-27T09:43:57.938Z,46.53
2018-11-27T09:46:27.880Z,45.57
2018-11-27T09:48:57.870Z,62.97
2018-11-27T09:51:27.736Z,56.47
2018-11-27T09:53:57.673Z,51.33
2018-11-27T09:56:27.747Z,48.93
2018-11-27T09:58:57.665Z,44.83
2018-11-27T10:01:27.642Z,43.43
2018-11-27T10:03:58.688Z,41.13
2018-11-27T10:06:28.699Z,39.07
2018-11-27T10:08:58.659Z,35.87
2018-11-27T10:11:28.689Z,41.57
2018-11-27T10:13:58.670Z,38.20
2018-11-27T10:16:28.591Z,33.90
2018-11-27T10:18:58.578Z,31.80
2018-11-27T10:21:28.576Z,39.90
2018-11-27T10:23:58.553Z,36.53
2018-11-27T10:26:28.546Z,40.73
2018-11-27T10:28:58.543Z,36.97
2018-11-27T10:31:28.468Z,34.77
2018-11-27T10:33:58.495Z,34.77
2018-11-27T10:36:28.514Z,30.20
2018-11-27T10:39:00.976Z,33.90
2018-11-27T10:41:28.483Z,86.90
2018-11-27T10:43:58.439Z,83.97
2018-11-27T10:46:28.351Z,27.20
2018-11-27T10:48:58.353Z,25.33
2018-11-27T10:51:28.314Z,25.07
2018-11-27T10:53:58.337Z,27.20
2018-11-27T10:56:28.320Z,28.50
2018-11-27T10:58:58.316Z,24.50
2018-11-27T11:01:33.540Z,27.37
2018-11-27T11:04:03.574Z,23.00
2018-11-27T11:06:33.800Z,28.70
2018-11-27T11:09:07.281Z,24.27
2018-11-27T11:11:37.328Z,23.83
2018-11-27T11:14:08.468Z,85.60
2018-11-27T11:16:38.461Z,24.40
2018-11-27T11:19:08.486Z,28.43
2018-11-27T11:21:38.408Z,27.60
2018-11-27T11:24:08.394Z,24.87
2018-11-27T11:26:38.332Z,23.90
2018-11-27T11:29:08.228Z,25.00
2018-11-27T11:31:38.208Z,41.10
2018-11-27T11:34:08.203Z,36.63
2018-11-27T11:36:38.224Z,35.43
2018-11-27T11:39:10.062Z,38.43
2018-11-27T11:41:40.131Z,32.47
2018-11-27T11:44:10.047Z,24.53
2018-11-27T11:46:40.146Z,24.03
2018-11-27T11:49:10.077Z,29.67
2018-11-27T11:51:40.043Z,27.00
2018-11-27T11:54:10.086Z,32.03
2018-11-27T11:56:40.022Z,25.67
2018-11-27T11:59:10.022Z,24.53
2018-11-27T12:01:40.050Z,22.50
2018-11-27T12:04:10.058Z,27.40
2018-11-27T12:06:39.973Z,28.70
2018-11-27T12:09:10.159Z,28.17
2018-11-27T12:11:40.203Z,23.97
2018-11-27T12:14:10.226Z,30.80
2018-11-27T12:16:40.478Z,35.87
2018-11-27T12:19:10.433Z,32.13
2018-11-27T12:21:40.506Z,34.27
2018-11-27T12:24:10.841Z,40.03
2018-11-27T12:26:40.952Z,31.77
2018-11-27T12:29:10.858Z,34.70
2018-11-27T12:31:41.728Z,34.10
2018-11-27T12:34:11.732Z,36.17
2018-11-27T12:36:41.773Z,36.53
2018-11-27T12:39:12.235Z,37.70
2018-11-27T12:41:42.226Z,34.87
2018-11-27T12:44:12.193Z,32.67
2018-11-27T12:46:42.190Z,31.10
2018-11-27T12:49:12.222Z,32.67
2018-11-27T12:51:42.139Z,37.10
2018-11-27T12:54:12.143Z,30.87
2018-11-27T12:56:43.818Z,25.57
2018-11-27T12:59:12.100Z,29.87
2018-11-27T13:01:42.125Z,25.27
2018-11-27T13:04:12.135Z,24.37
2018-11-27T13:06:42.160Z,23.93
2018-11-27T13:09:12.164Z,28.20
2018-11-27T13:11:42.135Z,31.33
2018-11-27T13:14:12.575Z,32.13
2018-11-27T13:16:42.606Z,30.17
2018-11-27T13:19:12.462Z,26.70
2018-11-27T13:21:42.383Z,27.50
2018-11-27T13:24:12.278Z,30.00
2018-11-27T13:26:42.345Z,32.90
2018-11-27T13:29:12.300Z,28.80
2018-11-27T13:31:42.307Z,29.03
2018-11-27T13:34:14.158Z,32.77
2018-11-27T13:36:44.234Z,32.30
2018-11-27T13:39:30.210Z,37.37
2018-11-27T13:42:00.336Z,31.60
2018-11-27T13:44:30.317Z,33.80
2018-11-27T13:47:00.369Z,32.60
2018-11-27T13:49:31.391Z,39.50
2018-11-27T13:52:01.281Z,36.30
2018-11-27T13:54:31.250Z,32.77
2018-11-27T13:57:01.318Z,34.60
2018-11-27T13:59:31.243Z,28.93
2018-11-27T14:02:01.205Z,35.80
2018-11-27T14:04:33.311Z,32.27
2018-11-27T14:07:03.201Z,32.07
2018-11-27T14:09:33.106Z,33.03
2018-11-27T14:12:03.051Z,30.47
2018-11-27T14:14:33.053Z,32.20
2018-11-27T14:17:04.187Z,33.90
2018-11-27T14:19:34.563Z,37.40
2018-11-27T14:22:04.658Z,34.80
2018-11-27T14:24:34.614Z,36.97
2018-11-27T14:27:04.596Z,34.10
2018-11-27T14:29:34.584Z,35.07
2018-11-27T14:32:04.643Z,34.93
2018-11-27T14:34:36.538Z,35.33
2018-11-27T14:37:07.094Z,31.63
2018-11-27T14:39:37.710Z,35.83
2018-11-27T14:42:07.847Z,32.00
2018-11-27T14:44:37.783Z,34.90
2018-11-27T14:47:07.744Z,36.07
2018-11-27T14:49:37.704Z,32.20
2018-11-27T14:52:08.672Z,60.93
2018-11-27T14:54:38.713Z,47.43
2018-11-27T14:57:08.724Z,37.13
2018-11-27T14:59:38.660Z,35.80
2018-11-27T15:02:10.710Z,38.23
2018-11-27T15:04:40.633Z,37.70
2018-11-27T15:07:10.590Z,31.87
2018-11-27T15:09:40.638Z,35.00
2018-11-27T15:12:10.606Z,39.67
2018-11-27T15:14:40.528Z,32.33
2018-11-27T15:17:10.525Z,32.70
2018-11-27T15:19:40.516Z,36.93
2018-11-27T15:22:10.506Z,32.17
2018-11-27T15:24:40.415Z,35.67
2018-11-27T15:27:10.525Z,34.20
2018-11-27T15:29:40.538Z,36.03
2018-11-27T15:32:10.593Z,31.80
2018-11-27T15:34:40.583Z,41.03
2018-11-27T15:37:10.664Z,43.77
2018-11-27T15:39:40.614Z,58.47
2018-11-27T15:42:10.608Z,37.17
2018-11-27T15:44:40.579Z,31.47
2018-11-27T15:47:10.644Z,32.90
2018-11-27T15:49:40.601Z,31.73
2018-11-27T15:52:10.574Z,28.77
2018-11-27T15:54:41.924Z,31.73
2018-11-27T15:57:11.974Z,39.00
2018-11-27T15:59:41.953Z,39.67
2018-11-27T16:02:11.947Z,34.27
2018-11-27T16:04:41.840Z,34.20
2018-11-27T16:07:11.929Z,39.30
2018-11-27T16:09:42.171Z,35.67
2018-11-27T16:12:12.222Z,35.73
2018-11-27T16:14:42.198Z,30.47
2018-11-27T16:17:12.253Z,28.63
2018-11-27T16:19:42.182Z,36.93
2018-11-27T16:22:12.140Z,29.70
2018-11-27T16:24:42.140Z,32.90
2018-11-27T16:27:12.160Z,32.33
2018-11-27T16:29:42.241Z,31.40
2018-11-27T16:32:12.271Z,29.70
2018-11-27T16:34:42.237Z,33.60
2018-11-27T16:37:12.294Z,31.47
2018-11-27T16:39:46.028Z,29.57
2018-11-27T16:42:15.963Z,33.13
2018-11-27T16:44:46.109Z,31.57
2018-11-27T16:47:17.166Z,34.63
2018-11-27T16:49:48.408Z,36.93
2018-11-27T16:52:18.593Z,33.90
2018-11-27T16:54:48.750Z,33.07
2018-11-27T16:57:18.852Z,30.53
2018-11-27T16:59:48.998Z,31.73
2018-11-27T17:02:19.034Z,29.77
2018-11-27T17:04:49.097Z,33.67
2018-11-27T17:07:20.134Z,28.90
2018-11-27T17:09:50.214Z,31.60
2018-11-27T17:12:20.260Z,31.00
2018-11-27T17:14:50.322Z,31.40
2018-11-27T17:17:22.306Z,35.07
2018-11-27T17:19:52.261Z,28.90
2018-11-27T17:22:22.328Z,25.47
2018-11-27T17:24:52.322Z,27.77
2018-11-27T17:27:22.697Z,33.53
2018-11-27T17:29:53.630Z,29.13
2018-11-27T17:32:24.482Z,29.67
2018-11-27T17:34:55.328Z,37.23
2018-11-27T17:37:25.195Z,28.57
2018-11-27T17:39:55.251Z,30.83
2018-11-27T17:42:25.323Z,31.57
2018-11-27T17:44:55.404Z,38.30
2018-11-27T17:47:25.347Z,36.00
2018-11-27T17:49:55.441Z,43.63
2018-11-27T17:52:25.522Z,37.07
2018-11-27T17:54:55.499Z,32.40
2018-11-27T17:57:25.590Z,41.00
2018-11-27T17:59:55.562Z,40.20
2018-11-27T18:02:25.639Z,40.53
2018-11-27T18:04:55.552Z,33.97
2018-11-27T18:07:25.597Z,36.13
2018-11-27T18:09:56.131Z,35.57
2018-11-27T18:12:26.227Z,36.43
2018-11-27T18:14:56.339Z,38.87
2018-11-27T18:17:26.317Z,45.73
2018-11-27T18:19:56.441Z,39.13
2018-11-27T18:22:27.502Z,41.47
2018-11-27T18:24:57.499Z,47.17
2018-11-27T18:27:27.496Z,42.83
2018-11-27T18:29:57.534Z,48.47
2018-11-27T18:32:27.542Z,45.57
2018-11-27T18:34:57.610Z,41.87
2018-11-27T18:37:27.777Z,47.70
2018-11-27T18:39:57.759Z,45.00
2018-11-27T18:42:28.122Z,45.67
2018-11-27T18:44:59.882Z,42.40
2018-11-27T18:47:30.381Z,45.17
2018-11-27T18:50:00.872Z,49.53
2018-11-27T18:52:31.510Z,47.33
2018-11-27T18:55:02.194Z,46.13
2018-11-27T18:57:33.919Z,50.10
2018-11-27T19:00:13.031Z,57.40
2018-11-27T19:02:43.177Z,51.53
2018-11-27T19:05:17.329Z,48.87
2018-11-27T19:07:49.007Z,49.17
2018-11-27T19:10:21.405Z,36.63
2018-11-27T19:12:53.652Z,43.23
2018-11-27T19:15:29.564Z,35.17
2018-11-27T19:18:01.472Z,43.07
2018-11-27T19:20:32.219Z,49.10
2018-11-27T19:23:02.159Z,42.43
2018-11-27T19:25:32.418Z,43.57
2018-11-27T19:28:02.405Z,43.10
2018-11-27T19:30:32.498Z,41.27
2018-11-27T19:33:02.450Z,41.10
2018-11-27T19:35:32.928Z,41.33
2018-11-27T19:38:02.966Z,38.70
2018-11-27T19:40:33.004Z,37.73
2018-11-27T19:43:03.021Z,36.40
2018-11-27T19:45:33.027Z,44.37
2018-11-27T19:48:03.105Z,36.43
2018-11-27T19:50:33.109Z,39.07
2018-11-27T19:53:03.099Z,43.27
2018-11-27T19:55:34.649Z,46.60
2018-11-27T19:58:05.494Z,46.33
2018-11-27T20:00:35.892Z,46.73
2018-11-27T20:03:07.497Z,45.13
2018-11-27T20:05:37.550Z,35.73
2018-11-27T20:08:09.502Z,41.43
2018-11-27T20:10:39.469Z,36.37
2018-11-27T20:13:10.272Z,42.37
2018-11-27T20:15:40.958Z,37.17
2018-11-27T20:18:11.354Z,40.33
2018-11-27T20:20:41.408Z,38.20
2018-11-27T20:23:11.361Z,37.03
2018-11-27T20:25:41.405Z,33.43
2018-11-27T20:28:11.490Z,35.17
2018-11-27T20:30:42.203Z,32.27
2018-11-27T20:33:12.358Z,33.40
2018-11-27T20:35:42.996Z,32.47
2018-11-27T20:38:13.141Z,30.70
2018-11-27T20:40:43.465Z,41.03
2018-11-27T20:43:13.852Z,35.70
2018-11-27T20:45:44.104Z,35.73
2018-11-27T20:48:17.294Z,35.33
2018-11-27T20:50:49.462Z,31.57
2018-11-27T20:53:19.629Z,34.53
2018-11-27T20:55:49.986Z,36.10
2018-11-27T20:58:20.779Z,32.17
2018-11-27T21:00:52.075Z,30.10
2018-11-27T21:03:22.860Z,31.90
2018-11-27T21:05:52.924Z,31.83
2018-11-27T21:08:22.839Z,32.97
2018-11-27T21:10:52.979Z,34.43
2018-11-27T21:13:23.971Z,27.07
2018-11-27T21:15:54.124Z,30.83
2018-11-27T21:18:24.082Z,32.47
2018-11-27T21:20:54.024Z,29.97
2018-11-27T21:23:24.036Z,34.83
2018-11-27T21:25:59.286Z,33.67
2018-11-27T21:28:29.400Z,33.23
2018-11-27T21:31:00.277Z,37.83
2018-11-27T21:33:30.470Z,32.47
2018-11-27T21:36:00.478Z,34.43
2018-11-27T21:38:31.463Z,37.83
2018-11-27T21:41:01.587Z,32.73
2018-11-27T21:43:31.553Z,36.17
2018-11-27T21:46:01.709Z,34.33
2018-11-27T21:48:31.782Z,31.77
2018-11-27T21:51:01.751Z,33.27
2018-11-27T21:53:31.886Z,33.50
2018-11-27T21:56:01.959Z,32.50
2018-11-27T21:58:31.989Z,29.93
2018-11-27T22:01:02.543Z,36.03
2018-11-27T22:03:32.575Z,30.07
2018-11-27T22:06:03.681Z,35.80
2018-11-27T22:08:33.748Z,31.87
2018-11-27T22:11:04.704Z,31.70
2018-11-27T22:13:34.736Z,31.77
2018-11-27T22:16:04.734Z,34.43
2018-11-27T22:18:34.669Z,34.20
2018-11-27T22:21:05.058Z,32.70
2018-11-27T22:23:35.095Z,31.17
2018-11-27T22:26:05.069Z,32.97
2018-11-27T22:28:35.022Z,25.50
2018-11-27T22:31:05.080Z,31.37
2018-11-27T22:33:35.034Z,28.03
2018-11-27T22:36:05.281Z,30.27
2018-11-27T22:38:35.198Z,29.23
2018-11-27T22:41:05.382Z,27.27
2018-11-27T22:43:35.322Z,30.53
2018-11-27T22:46:05.587Z,27.13
2018-11-27T22:48:35.474Z,32.10
2018-11-27T22:51:05.514Z,31.43
2018-11-27T22:53:35.464Z,30.10
2018-11-27T22:56:05.761Z,28.77
2018-11-27T22:58:35.745Z,27.40
2018-11-27T23:01:05.839Z,30.93
2018-11-27T23:03:35.856Z,27.43
2018-11-27T23:06:05.923Z,25.67
2018-11-27T23:08:35.842Z,28.83
2018-11-27T23:11:05.856Z,26.53
2018-11-27T23:13:35.898Z,27.53
2018-11-27T23:16:06.176Z,27.17
2018-11-27T23:18:36.210Z,30.37
2018-11-27T23:21:06.183Z,30.73
2018-11-27T23:23:36.160Z,26.30
2018-11-27T23:26:06.475Z,27.77
2018-11-27T23:28:36.479Z,27.80
2018-11-27T23:31:06.471Z,29.20
2018-11-27T23:33:36.360Z,28.10
2018-11-27T23:36:06.589Z,32.70
2018-11-27T23:38:36.598Z,32.20
2018-11-27T23:41:06.766Z,28.10
2018-11-27T23:43:36.789Z,29.30
2018-11-27T23:46:06.710Z,29.80
2018-11-27T23:48:36.745Z,29.70
2018-11-27T23:51:06.792Z,27.00
2018-11-27T23:53:36.821Z,29.03
2018-11-27T23:56:06.777Z,27.70
2018-11-27T23:58:36.831Z,27.23
